SAS1213 EKCH-EKYT
Flight info
| Callsign | SAS1213 |
|---|---|
| Flight time | 0h 31m |
| Altitude | 18000 |
| Route | GOLGA DCT BAKIT |
| Aircraft | A320/M-SDE3FGHIRWY/LB1 |
Departure
| Time | 2026-05-04 18:56 |
|---|---|
| Airport | Copenhagen Kastrup Airport (EKCH) |
Arrival
| Time | 2026-05-04 19:27 |
|---|---|
| Airport | Aalborg Airport (EKYT) |
| Time | Latitude | Longitude | Altitude | Speed | Heading |
|---|---|---|---|---|---|
| 2026-05-04 18:33 | 55.62645 | 12.64552 | 17 ft | 0 kts | 281° |
| 2026-05-04 18:43 | 55.62644 | 12.64561 | 17 ft | 2 kts | 281° |
| 2026-05-04 18:43 | 55.62641 | 12.64595 | 17 ft | 3 kts | 277° |
| 2026-05-04 18:43 | 55.62640 | 12.64630 | 18 ft | 3 kts | 263° |
| 2026-05-04 18:44 | 55.62644 | 12.64661 | 19 ft | 3 kts | 224° |
| 2026-05-04 18:44 | 55.62651 | 12.64671 | 21 ft | 1 kts | 193° |
| 2026-05-04 18:44 | 55.62645 | 12.64669 | 20 ft | 3 kts | 192° |
| 2026-05-04 18:44 | 55.62625 | 12.64661 | 19 ft | 3 kts | 192° |
| 2026-05-04 18:45 | 55.62615 | 12.64658 | 18 ft | 0 kts | 192° |
| 2026-05-04 18:47 | 55.62607 | 12.64656 | 18 ft | 2 kts | 186° |
| 2026-05-04 18:47 | 55.62583 | 12.64652 | 17 ft | 5 kts | 184° |
| 2026-05-04 18:47 | 55.62542 | 12.64653 | 17 ft | 7 kts | 175° |
| 2026-05-04 18:47 | 55.62486 | 12.64661 | 17 ft | 9 kts | 175° |
| 2026-05-04 18:48 | 55.62417 | 12.64673 | 17 ft | 11 kts | 174° |
| 2026-05-04 18:48 | 55.62404 | 12.64675 | 18 ft | 0 kts | 176° |
| 2026-05-04 18:48 | 55.62403 | 12.64675 | 18 ft | 0 kts | 176° |
| 2026-05-04 18:48 | 55.62401 | 12.64675 | 19 ft | 1 kts | 176° |
| 2026-05-04 18:49 | 55.62388 | 12.64677 | 18 ft | 3 kts | 176° |
| 2026-05-04 18:49 | 55.62358 | 12.64679 | 17 ft | 5 kts | 180° |
| 2026-05-04 18:49 | 55.62317 | 12.64652 | 17 ft | 7 kts | 213° |
| 2026-05-04 18:49 | 55.62293 | 12.64583 | 18 ft | 0 kts | 243° |
| 2026-05-04 18:51 | 55.62292 | 12.64583 | 18 ft | 1 kts | 243° |
| 2026-05-04 18:51 | 55.62286 | 12.64561 | 17 ft | 4 kts | 243° |
| 2026-05-04 18:51 | 55.62270 | 12.64506 | 16 ft | 6 kts | 243° |
| 2026-05-04 18:51 | 55.62243 | 12.64417 | 16 ft | 10 kts | 239° |
| 2026-05-04 18:52 | 55.62174 | 12.64326 | 16 ft | 14 kts | 205° |
| 2026-05-04 18:52 | 55.62083 | 12.64250 | 17 ft | 15 kts | 206° |
| 2026-05-04 18:52 | 55.61979 | 12.64159 | 17 ft | 18 kts | 206° |
| 2026-05-04 18:52 | 55.61859 | 12.64049 | 18 ft | 20 kts | 214° |
| 2026-05-04 18:53 | 55.61746 | 12.63940 | 17 ft | 17 kts | 172° |
| 2026-05-04 18:53 | 55.61670 | 12.63948 | 18 ft | 0 kts | 178° |
| 2026-05-04 18:54 | 55.61669 | 12.63949 | 18 ft | 1 kts | 178° |
| 2026-05-04 18:54 | 55.61644 | 12.63950 | 20 ft | 8 kts | 178° |
| 2026-05-04 18:55 | 55.61563 | 12.63949 | 19 ft | 15 kts | 191° |
| 2026-05-04 18:55 | 55.61118 | 12.63280 | 21 ft | 97 kts | 220° |
| 2026-05-04 18:55 | 55.60450 | 12.62255 | 19 ft | 151 kts | 221° |
| 2026-05-04 18:56 | 55.59661 | 12.60987 | 471 ft | 152 kts | 226° |
| 2026-05-04 18:56 | 55.58882 | 12.59732 | 1123 ft | 152 kts | 225° |
| 2026-05-04 18:56 | 55.58034 | 12.58413 | 1423 ft | 174 kts | 224° |
| 2026-05-04 18:56 | 55.57058 | 12.56912 | 1707 ft | 197 kts | 224° |
| 2026-05-04 18:57 | 55.56144 | 12.54964 | 1984 ft | 218 kts | 253° |
| 2026-05-04 18:57 | 55.56074 | 12.52206 | 2400 ft | 238 kts | 280° |
| 2026-05-04 18:57 | 55.56348 | 12.49251 | 3177 ft | 247 kts | 280° |
| 2026-05-04 18:57 | 55.56633 | 12.46234 | 4106 ft | 251 kts | 279° |
| 2026-05-04 18:58 | 55.56920 | 12.43174 | 5073 ft | 253 kts | 279° |
| 2026-05-04 18:58 | 55.57216 | 12.40101 | 6028 ft | 254 kts | 279° |
| 2026-05-04 18:58 | 55.57522 | 12.37009 | 6936 ft | 256 kts | 279° |
| 2026-05-04 18:58 | 55.57834 | 12.33895 | 7813 ft | 259 kts | 279° |
| 2026-05-04 18:59 | 55.58151 | 12.30743 | 8684 ft | 261 kts | 279° |
| 2026-05-04 18:59 | 55.58476 | 12.27534 | 9565 ft | 264 kts | 279° |
| 2026-05-04 18:59 | 55.58799 | 12.24340 | 10221 ft | 274 kts | 279° |
| 2026-05-04 18:59 | 55.59371 | 12.20987 | 10450 ft | 298 kts | 297° |
| 2026-05-04 19:00 | 55.60787 | 12.18208 | 10961 ft | 316 kts | 322° |
| 2026-05-04 19:00 | 55.62822 | 12.16545 | 11643 ft | 325 kts | 335° |
| 2026-05-04 19:00 | 55.64947 | 12.15131 | 12366 ft | 329 kts | 335° |
| 2026-05-04 19:00 | 55.67104 | 12.13731 | 13081 ft | 332 kts | 335° |
| 2026-05-04 19:01 | 55.69292 | 12.12319 | 13785 ft | 336 kts | 335° |
| 2026-05-04 19:01 | 55.71497 | 12.10885 | 14429 ft | 340 kts | 335° |
| 2026-05-04 19:01 | 55.73725 | 12.09425 | 15076 ft | 342 kts | 335° |
| 2026-05-04 19:01 | 55.75966 | 12.07948 | 15708 ft | 345 kts | 335° |
| 2026-05-04 19:02 | 55.78171 | 12.06297 | 16320 ft | 343 kts | 325° |
| 2026-05-04 19:02 | 55.80118 | 12.03861 | 16935 ft | 343 kts | 319° |
| 2026-05-04 19:02 | 55.82030 | 12.01316 | 17568 ft | 345 kts | 319° |
| 2026-05-04 19:02 | 55.83955 | 11.98730 | 17897 ft | 347 kts | 319° |
| 2026-05-04 19:03 | 55.85880 | 11.96135 | 17960 ft | 345 kts | 319° |
| 2026-05-04 19:03 | 55.87766 | 11.93585 | 17962 ft | 344 kts | 319° |
| 2026-05-04 19:03 | 55.89671 | 11.91006 | 17962 ft | 344 kts | 319° |
| 2026-05-04 19:03 | 55.91574 | 11.88431 | 17958 ft | 344 kts | 319° |
| 2026-05-04 19:04 | 55.93485 | 11.85848 | 17956 ft | 344 kts | 319° |
| 2026-05-04 19:04 | 55.95397 | 11.83262 | 17959 ft | 344 kts | 319° |
| 2026-05-04 19:04 | 55.97306 | 11.80675 | 17959 ft | 344 kts | 319° |
| 2026-05-04 19:04 | 55.99216 | 11.78083 | 17959 ft | 344 kts | 319° |
| 2026-05-04 19:05 | 56.01119 | 11.75494 | 17964 ft | 344 kts | 319° |
| 2026-05-04 19:05 | 56.03029 | 11.72883 | 17989 ft | 345 kts | 318° |
| 2026-05-04 19:05 | 56.04930 | 11.70283 | 17988 ft | 344 kts | 318° |
| 2026-05-04 19:05 | 56.06835 | 11.67676 | 17987 ft | 344 kts | 318° |
| 2026-05-04 19:06 | 56.08736 | 11.65077 | 17987 ft | 344 kts | 318° |
| 2026-05-04 19:06 | 56.10646 | 11.62466 | 17985 ft | 344 kts | 318° |
| 2026-05-04 19:06 | 56.12546 | 11.59866 | 17984 ft | 344 kts | 318° |
| 2026-05-04 19:06 | 56.14455 | 11.57252 | 17984 ft | 344 kts | 318° |
| 2026-05-04 19:07 | 56.16352 | 11.54650 | 17982 ft | 344 kts | 318° |
| 2026-05-04 19:07 | 56.18253 | 11.52037 | 17976 ft | 344 kts | 318° |
| 2026-05-04 19:07 | 56.20152 | 11.49419 | 17958 ft | 343 kts | 318° |
| 2026-05-04 19:07 | 56.22012 | 11.46848 | 17956 ft | 342 kts | 318° |
| 2026-05-04 19:08 | 56.23893 | 11.44247 | 17961 ft | 342 kts | 318° |
| 2026-05-04 19:08 | 56.25781 | 11.41634 | 17961 ft | 342 kts | 318° |
| 2026-05-04 19:08 | 56.27669 | 11.39020 | 17961 ft | 342 kts | 318° |
| 2026-05-04 19:08 | 56.29556 | 11.36404 | 17961 ft | 342 kts | 318° |
| 2026-05-04 19:09 | 56.31440 | 11.33791 | 17958 ft | 342 kts | 318° |
| 2026-05-04 19:09 | 56.33324 | 11.31173 | 17985 ft | 342 kts | 317° |
| 2026-05-04 19:09 | 56.35205 | 11.28560 | 17982 ft | 342 kts | 318° |
| 2026-05-04 19:09 | 56.37072 | 11.25966 | 17777 ft | 334 kts | 317° |
| 2026-05-04 19:10 | 56.38888 | 11.23446 | 17508 ft | 325 kts | 317° |
| 2026-05-04 19:10 | 56.40661 | 11.20982 | 17245 ft | 317 kts | 317° |
| 2026-05-04 19:10 | 56.42387 | 11.18574 | 16982 ft | 310 kts | 317° |
| 2026-05-04 19:10 | 56.44077 | 11.16206 | 16728 ft | 306 kts | 317° |
| 2026-05-04 19:11 | 56.45749 | 11.13852 | 16454 ft | 304 kts | 317° |
| 2026-05-04 19:11 | 56.47405 | 11.11517 | 16200 ft | 302 kts | 317° |
| 2026-05-04 19:11 | 56.49069 | 11.09175 | 15943 ft | 301 kts | 317° |
| 2026-05-04 19:11 | 56.50711 | 11.06863 | 15691 ft | 300 kts | 317° |
| 2026-05-04 19:12 | 56.52347 | 11.04562 | 15433 ft | 295 kts | 317° |
| 2026-05-04 19:12 | 56.55561 | 11.00039 | 14758 ft | 290 kts | 317° |
| 2026-05-04 19:12 | 56.57156 | 10.97787 | 14397 ft | 289 kts | 316° |
| 2026-05-04 19:13 | 56.58734 | 10.95547 | 14049 ft | 288 kts | 316° |
| 2026-05-04 19:13 | 56.60310 | 10.93315 | 13699 ft | 287 kts | 316° |
| 2026-05-04 19:13 | 56.61875 | 10.91098 | 13325 ft | 285 kts | 317° |
| 2026-05-04 19:13 | 56.63435 | 10.88883 | 12981 ft | 283 kts | 317° |
| 2026-05-04 19:14 | 56.65041 | 10.86597 | 12623 ft | 281 kts | 316° |
| 2026-05-04 19:14 | 56.66513 | 10.84498 | 12293 ft | 279 kts | 316° |
| 2026-05-04 19:14 | 56.68030 | 10.82335 | 11955 ft | 276 kts | 317° |
| 2026-05-04 19:14 | 56.69541 | 10.80181 | 11614 ft | 275 kts | 317° |
| 2026-05-04 19:15 | 56.71023 | 10.78072 | 11280 ft | 273 kts | 317° |
| 2026-05-04 19:15 | 56.72516 | 10.75943 | 10936 ft | 272 kts | 317° |
| 2026-05-04 19:15 | 56.74018 | 10.73795 | 10614 ft | 271 kts | 317° |
| 2026-05-04 19:15 | 56.75476 | 10.71705 | 10289 ft | 270 kts | 317° |
| 2026-05-04 19:16 | 56.76964 | 10.69568 | 9949 ft | 269 kts | 317° |
| 2026-05-04 19:16 | 56.78430 | 10.67468 | 9597 ft | 268 kts | 317° |
| 2026-05-04 19:16 | 56.79898 | 10.65366 | 9253 ft | 266 kts | 317° |
| 2026-05-04 19:16 | 56.81348 | 10.63286 | 8925 ft | 264 kts | 317° |
| 2026-05-04 19:17 | 56.82788 | 10.61214 | 8591 ft | 262 kts | 317° |
| 2026-05-04 19:17 | 56.84217 | 10.59157 | 8260 ft | 261 kts | 317° |
| 2026-05-04 19:17 | 56.85626 | 10.57099 | 7956 ft | 259 kts | 317° |
| 2026-05-04 19:17 | 56.86990 | 10.55034 | 7664 ft | 256 kts | 315° |
| 2026-05-04 19:18 | 56.88342 | 10.52915 | 7319 ft | 256 kts | 315° |
| 2026-05-04 19:18 | 56.89676 | 10.50724 | 7033 ft | 253 kts | 314° |
| 2026-05-04 19:18 | 56.90955 | 10.48520 | 6711 ft | 253 kts | 313° |
| 2026-05-04 19:18 | 56.92208 | 10.46253 | 6370 ft | 253 kts | 311° |
| 2026-05-04 19:19 | 56.93427 | 10.43994 | 6036 ft | 253 kts | 311° |
| 2026-05-04 19:19 | 56.94568 | 10.41549 | 5763 ft | 248 kts | 303° |
| 2026-05-04 19:19 | 56.95194 | 10.39809 | 5558 ft | 246 kts | 297° |
| 2026-05-04 19:19 | 56.96214 | 10.36114 | 5122 ft | 245 kts | 293° |
| 2026-05-04 19:20 | 56.96926 | 10.33308 | 4864 ft | 241 kts | 293° |
| 2026-05-04 19:20 | 56.97622 | 10.30525 | 4578 ft | 239 kts | 294° |
| 2026-05-04 19:20 | 56.98274 | 10.27742 | 4243 ft | 235 kts | 291° |
| 2026-05-04 19:20 | 56.98697 | 10.25913 | 3982 ft | 224 kts | 292° |
| 2026-05-04 19:21 | 56.99291 | 10.23383 | 3640 ft | 210 kts | 292° |
| 2026-05-04 19:21 | 56.99895 | 10.20953 | 3366 ft | 208 kts | 294° |
| 2026-05-04 19:21 | 57.00545 | 10.18590 | 3148 ft | 207 kts | 297° |
| 2026-05-04 19:21 | 57.01221 | 10.16408 | 2956 ft | 185 kts | 300° |
| 2026-05-04 19:22 | 57.01901 | 10.14528 | 2770 ft | 171 kts | 304° |
| 2026-05-04 19:22 | 57.02588 | 10.12825 | 2758 ft | 165 kts | 304° |
| 2026-05-04 19:22 | 57.03287 | 10.11124 | 2748 ft | 162 kts | 304° |
| 2026-05-04 19:22 | 57.03966 | 10.09538 | 2594 ft | 156 kts | 306° |
| 2026-05-04 19:23 | 57.04628 | 10.08079 | 2477 ft | 141 kts | 308° |
| 2026-05-04 19:23 | 57.05236 | 10.06783 | 2320 ft | 131 kts | 307° |
| 2026-05-04 19:23 | 57.05864 | 10.05588 | 2047 ft | 128 kts | 310° |
| 2026-05-04 19:23 | 57.06488 | 10.04435 | 1760 ft | 126 kts | 309° |
| 2026-05-04 19:24 | 57.07104 | 10.03291 | 1538 ft | 126 kts | 309° |
| 2026-05-04 19:24 | 57.07715 | 10.02152 | 1415 ft | 125 kts | 308° |
| 2026-05-04 19:24 | 57.08310 | 10.00995 | 1342 ft | 124 kts | 307° |
| 2026-05-04 19:24 | 57.08858 | 9.99783 | 1289 ft | 123 kts | 303° |
| 2026-05-04 19:25 | 57.09336 | 9.98484 | 1215 ft | 122 kts | 298° |
| 2026-05-04 19:25 | 57.09743 | 9.97101 | 1167 ft | 123 kts | 289° |
| 2026-05-04 19:25 | 57.09962 | 9.95598 | 959 ft | 121 kts | 277° |
| 2026-05-04 19:25 | 57.10012 | 9.94054 | 764 ft | 122 kts | 270° |
| 2026-05-04 19:26 | 57.09958 | 9.92480 | 583 ft | 123 kts | 266° |
| 2026-05-04 19:26 | 57.09844 | 9.90921 | 418 ft | 124 kts | 264° |
| 2026-05-04 19:26 | 57.09755 | 9.89339 | 237 ft | 124 kts | 265° |
| 2026-05-04 19:26 | 57.09660 | 9.87759 | 64 ft | 124 kts | 263° |
| 2026-05-04 19:27 | 57.09573 | 9.86401 | 19 ft | 72 kts | 263° |
| 2026-05-04 19:27 | 57.09548 | 9.85997 | 19 ft | 16 kts | 263° |
| 2026-05-04 19:27 | 57.09518 | 9.85712 | 20 ft | 14 kts | 221° |
| 2026-05-04 19:27 | 57.09434 | 9.85760 | 19 ft | 14 kts | 146° |
| 2026-05-04 19:28 | 57.09350 | 9.85879 | 19 ft | 16 kts | 140° |
| 2026-05-04 19:28 | 57.09254 | 9.86018 | 19 ft | 19 kts | 142° |
| 2026-05-04 19:28 | 57.09139 | 9.86172 | 19 ft | 22 kts | 144° |
| 2026-05-04 19:28 | 57.09011 | 9.86351 | 19 ft | 24 kts | 142° |
| 2026-05-04 19:29 | 57.08871 | 9.86552 | 19 ft | 27 kts | 142° |
| 2026-05-04 19:29 | 57.08765 | 9.86704 | 19 ft | 19 kts | 141° |
| 2026-05-04 19:29 | 57.08718 | 9.86784 | 19 ft | 5 kts | 129° |
| 2026-05-04 19:29 | 57.08710 | 9.86853 | 19 ft | 7 kts | 74° |
| 2026-05-04 19:30 | 57.08734 | 9.86922 | 20 ft | 5 kts | 56° |
| 2026-05-04 19:30 | 57.08739 | 9.86936 | 19 ft | 0 kts | 55° |